Time;durP1;ratioP1;P1;durP2;ratioP2;P2;SDS_P1;SDS_P2;PMS_P1;PMS_P2;Temp;Humidity;BMP_temperature;BMP_pressure;BME280_temperature;BME280_humidity;BME280_pressure;Samples;Min_cycle;Max_cycle;Signal;HPM_P1;HPM_P2
2022/09/26 00:01:11;;;;;;;3.40;2.27;;;;;;;;;;5134796;27;20719;-68
2022/09/26 00:03:38;;;;;;;4.87;2.13;;;;;;;;;;5116548;28;20508;-68
2022/09/26 00:06:06;;;;;;;4.33;2.20;;;;;;;;;;5116000;27;20566;-68
2022/09/26 00:08:34;;;;;;;3.47;2.10;;;;;;;;;;5136122;27;20469;-68
2022/09/26 00:11:03;;;;;;;4.07;2.03;;;;;;;;;;5136803;27;20450;-68
2022/09/26 00:13:31;;;;;;;2.97;2.00;;;;;;;;;;5132229;27;20845;-68
2022/09/26 00:15:59;;;;;;;2.43;1.67;;;;;;;;;;5124017;28;20751;-68
2022/09/26 00:18:26;;;;;;;3.00;1.80;;;;;;;;;;5126219;27;20461;-68
2022/09/26 00:20:53;;;;;;;2.90;1.90;;;;;;;;;;5124601;27;20488;-69
2022/09/26 00:23:20;;;;;;;2.20;1.50;;;;;;;;;;5136673;27;20466;-69
2022/09/26 00:25:47;;;;;;;3.57;1.93;;;;;;;;;;5134103;27;20458;-68
2022/09/26 00:28:15;;;;;;;3.30;1.90;;;;;;;;;;5136606;27;20464;-68
2022/09/26 00:30:43;;;;;;;2.30;1.70;;;;;;;;;;5135614;27;20458;-68
2022/09/26 00:33:10;;;;;;;3.10;1.70;;;;;;;;;;5135900;27;20477;-68
2022/09/26 00:35:37;;;;;;;3.70;1.60;;;;;;;;;;5134597;27;20442;-68
2022/09/26 00:38:05;;;;;;;4.13;2.20;;;;;;;;;;5136289;27;20458;-68
2022/09/26 00:40:32;;;;;;;2.00;1.40;;;;;;;;;;5132099;27;20531;-67
2022/09/26 00:42:59;;;;;;;7.63;2.03;;;;;;;;;;5117678;28;20510;-68
2022/09/26 00:45:37;;;;;;;3.70;1.60;;;;;;;;;;5135327;27;20438;-68
2022/09/26 00:48:06;;;;;;;4.83;1.80;;;;;;;;;;5130926;28;20481;-68
2022/09/26 00:50:35;;;;;;;6.90;1.80;;;;;;;;;;5118660;27;20510;-68
2022/09/26 00:53:05;;;;;;;3.30;1.70;;;;;;;;;;5133217;27;20497;-68
2022/09/26 00:55:35;;;;;;;2.97;1.40;;;;;;;;;;5115687;27;20450;-68
2022/09/26 00:58:04;;;;;;;4.83;1.10;;;;;;;;;;5133774;27;20446;-68
2022/09/26 01:00:34;;;;;;;3.13;1.43;;;;;;;;;;5130378;27;20898;-68
2022/09/26 01:03:02;;;;;;;2.13;1.37;;;;;;;;;;5134201;27;20670;-68
2022/09/26 01:05:31;;;;;;;2.30;1.53;;;;;;;;;;5124849;28;20454;-68
2022/09/26 01:07:59;;;;;;;3.67;1.80;;;;;;;;;;5133315;27;20582;-68
2022/09/26 01:10:26;;;;;;;2.80;1.47;;;;;;;;;;5134583;27;20484;-67
2022/09/26 01:12:53;;;;;;;3.07;1.60;;;;;;;;;;5132694;27;21346;-68
2022/09/26 01:15:21;;;;;;;4.53;1.80;;;;;;;;;;5133702;27;20528;-68
2022/09/26 01:17:48;;;;;;;5.97;1.80;;;;;;;;;;5118418;28;20459;-67
2022/09/26 01:20:27;;;;;;;3.00;1.43;;;;;;;;;;5114871;28;20439;-67
2022/09/26 01:23:19;;;;;;;2.63;1.33;;;;;;;;;;5131530;27;20467;-67
2022/09/26 01:26:03;;;;;;;4.00;2.20;;;;;;;;;;5123368;28;20858;-69
2022/09/26 01:28:41;;;;;;;2.83;1.40;;;;;;;;;;5093054;27;20455;-69
2022/09/26 01:31:14;;;;;;;7.10;1.90;;;;;;;;;;5127738;27;20467;-69
2022/09/26 01:33:51;;;;;;;3.80;2.20;;;;;;;;;;5132827;27;20491;-68
2022/09/26 01:36:23;;;;;;;3.37;1.77;;;;;;;;;;5123966;27;20439;-68
2022/09/26 01:39:01;;;;;;;5.00;1.93;;;;;;;;;;5120450;28;20486;-68
2022/09/26 01:41:36;;;;;;;4.93;2.83;;;;;;;;;;5126064;27;20471;-68
2022/09/26 01:44:07;;;;;;;17.33;2.70;;;;;;;;;;5127289;28;20445;-68
2022/09/26 01:46:36;;;;;;;5.90;1.60;;;;;;;;;;5128138;27;20472;-68
2022/09/26 01:49:10;;;;;;;8.53;2.23;;;;;;;;;;5130391;27;20724;-68
2022/09/26 01:51:40;;;;;;;3.20;1.70;;;;;;;;;;5122500;27;20552;-68
2022/09/26 01:54:11;;;;;;;4.67;1.70;;;;;;;;;;5128691;27;20858;-68
2022/09/26 01:56:43;;;;;;;9.03;2.87;;;;;;;;;;5115745;28;20469;-68
2022/09/26 01:59:11;;;;;;;2.70;2.10;;;;;;;;;;5127842;27;20465;-68
2022/09/26 02:01:42;;;;;;;4.53;1.80;;;;;;;;;;5134210;27;20514;-68
2022/09/26 02:04:10;;;;;;;3.80;1.60;;;;;;;;;;5120899;27;20466;-68
2022/09/26 02:06:39;;;;;;;2.77;1.47;;;;;;;;;;5130339;27;20451;-68
2022/09/26 02:09:12;;;;;;;4.30;2.30;;;;;;;;;;5117555;27;20717;-69
2022/09/26 02:11:40;;;;;;;3.23;1.97;;;;;;;;;;5117988;28;20469;-69
2022/09/26 02:14:10;;;;;;;3.83;1.70;;;;;;;;;;5123921;28;20449;-68
2022/09/26 02:16:39;;;;;;;3.93;2.10;;;;;;;;;;5133120;27;20461;-69
2022/09/26 02:19:10;;;;;;;8.43;1.83;;;;;;;;;;5132614;27;20540;-68
2022/09/26 02:21:37;;;;;;;2.93;1.63;;;;;;;;;;5137339;27;20823;-68
2022/09/26 02:24:05;;;;;;;3.60;1.97;;;;;;;;;;5133602;27;20996;-68
2022/09/26 02:26:32;;;;;;;5.50;1.70;;;;;;;;;;5119241;28;20549;-69
2022/09/26 02:29:00;;;;;;;2.63;1.50;;;;;;;;;;5138228;27;20467;-69
2022/09/26 02:31:29;;;;;;;6.70;1.63;;;;;;;;;;5136972;27;20453;-68
2022/09/26 02:33:58;;;;;;;5.30;2.30;;;;;;;;;;5138740;27;20491;-68
2022/09/26 02:36:25;;;;;;;4.10;1.60;;;;;;;;;;5131153;27;20748;-68
2022/09/26 02:38:52;;;;;;;2.43;1.60;;;;;;;;;;5134191;27;20537;-68
2022/09/26 02:41:23;;;;;;;4.60;1.80;;;;;;;;;;5132908;27;20536;-68
2022/09/26 02:44:00;;;;;;;3.17;1.83;;;;;;;;;;5132589;27;20446;-69
2022/09/26 02:46:39;;;;;;;4.97;2.13;;;;;;;;;;5133774;27;20819;-69
2022/09/26 02:49:18;;;;;;;4.37;1.67;;;;;;;;;;5121418;27;20449;-69
2022/09/26 02:51:55;;;;;;;5.93;3.13;;;;;;;;;;5117045;28;20458;-69
2022/09/26 02:54:25;;;;;;;4.77;1.50;;;;;;;;;;5118359;28;20443;-68
2022/09/26 02:57:00;;;;;;;3.27;1.53;;;;;;;;;;5128917;27;20470;-68
2022/09/26 02:59:32;;;;;;;4.27;2.30;;;;;;;;;;5136492;27;20498;-68
2022/09/26 03:02:02;;;;;;;4.80;2.27;;;;;;;;;;5122706;27;20458;-68
2022/09/26 03:04:32;;;;;;;6.73;1.80;;;;;;;;;;5124619;28;20543;-69
2022/09/26 03:07:02;;;;;;;4.07;2.00;;;;;;;;;;5119060;28;20469;-68
2022/09/26 03:09:29;;;;;;;5.07;2.40;;;;;;;;;;5136356;27;20460;-68
2022/09/26 03:12:00;;;;;;;6.10;2.83;;;;;;;;;;5134887;27;20453;-69
2022/09/26 03:14:29;;;;;;;6.60;2.83;;;;;;;;;;5137363;27;20445;-69
2022/09/26 03:16:56;;;;;;;3.30;1.73;;;;;;;;;;5121837;28;20454;-69
2022/09/26 03:19:26;;;;;;;5.70;2.40;;;;;;;;;;5135871;27;20446;-67
2022/09/26 03:21:54;;;;;;;5.10;2.40;;;;;;;;;;5126109;27;20756;-68
2022/09/26 03:24:23;;;;;;;5.40;2.00;;;;;;;;;;5118627;27;20496;-68
2022/09/26 03:26:50;;;;;;;2.70;1.60;;;;;;;;;;5137280;27;21091;-68
2022/09/26 03:29:18;;;;;;;3.50;2.00;;;;;;;;;;5133984;27;20457;-68
2022/09/26 03:31:48;;;;;;;3.00;2.20;;;;;;;;;;5122107;27;20563;-68
2022/09/26 03:34:19;;;;;;;4.27;2.07;;;;;;;;;;5129677;28;20450;-68
2022/09/26 03:36:49;;;;;;;2.90;1.70;;;;;;;;;;5117644;28;20862;-68
2022/09/26 03:39:17;;;;;;;5.27;1.90;;;;;;;;;;5124588;27;20514;-68
2022/09/26 03:41:44;;;;;;;2.80;1.70;;;;;;;;;;5128638;27;20509;-68
2022/09/26 03:44:12;;;;;;;5.63;2.27;;;;;;;;;;5136592;27;20746;-68
2022/09/26 03:46:39;;;;;;;4.37;1.87;;;;;;;;;;5129723;27;20742;-68
2022/09/26 03:49:06;;;;;;;6.23;1.83;;;;;;;;;;5117697;28;20820;-67
2022/09/26 03:51:33;;;;;;;3.80;2.10;;;;;;;;;;5119574;28;20461;-69
2022/09/26 03:54:00;;;;;;;8.30;2.50;;;;;;;;;;5134009;27;20505;-69
2022/09/26 03:56:28;;;;;;;2.67;2.07;;;;;;;;;;5134408;27;20456;-69
2022/09/26 03:58:59;;;;;;;2.97;1.97;;;;;;;;;;5133883;27;20483;-69
2022/09/26 04:01:27;;;;;;;2.70;1.60;;;;;;;;;;5128085;27;20447;-67
2022/09/26 04:03:54;;;;;;;4.53;2.30;;;;;;;;;;5116204;28;20451;-69
2022/09/26 04:06:22;;;;;;;4.07;1.97;;;;;;;;;;5121928;27;20446;-69
2022/09/26 04:08:50;;;;;;;8.53;2.37;;;;;;;;;;5124377;27;20454;-69
2022/09/26 04:11:18;;;;;;;4.50;2.40;;;;;;;;;;5118088;28;20973;-69
2022/09/26 04:13:46;;;;;;;3.87;2.00;;;;;;;;;;5116653;27;20494;-68
2022/09/26 04:16:14;;;;;;;5.60;2.57;;;;;;;;;;5133809;27;20457;-69
2022/09/26 04:18:41;;;;;;;3.97;2.70;;;;;;;;;;5125530;28;20473;-69
2022/09/26 04:21:09;;;;;;;2.60;1.80;;;;;;;;;;5122334;28;20466;-68
2022/09/26 04:23:38;;;;;;;5.07;2.33;;;;;;;;;;5123165;27;20455;-69
2022/09/26 04:26:06;;;;;;;4.30;2.17;;;;;;;;;;5117225;28;20478;-68
2022/09/26 04:28:34;;;;;;;5.30;1.97;;;;;;;;;;5129621;28;20458;-68
2022/09/26 04:31:02;;;;;;;5.10;2.10;;;;;;;;;;5115988;27;20762;-69
2022/09/26 04:33:31;;;;;;;3.47;1.90;;;;;;;;;;5119214;28;20490;-69
2022/09/26 04:35:59;;;;;;;7.27;2.30;;;;;;;;;;5124715;27;20454;-69
2022/09/26 04:38:32;;;;;;;11.60;2.80;;;;;;;;;;5131735;27;20559;-69
2022/09/26 04:41:03;;;;;;;3.00;2.20;;;;;;;;;;5130662;27;20583;-69
2022/09/26 04:43:30;;;;;;;3.73;2.20;;;;;;;;;;5117868;28;20488;-69
2022/09/26 04:45:57;;;;;;;4.80;1.83;;;;;;;;;;5133201;27;20763;-70
2022/09/26 04:48:25;;;;;;;2.63;1.93;;;;;;;;;;5131871;27;20529;-69
2022/09/26 04:50:55;;;;;;;3.13;1.40;;;;;;;;;;5128729;27;20495;-69
2022/09/26 04:53:31;;;;;;;3.33;1.63;;;;;;;;;;5128200;27;20481;-69
2022/09/26 04:55:58;;;;;;;3.33;1.57;;;;;;;;;;5133235;27;20446;-68
2022/09/26 04:58:25;;;;;;;4.20;1.77;;;;;;;;;;5134262;27;20779;-68
2022/09/26 05:00:53;;;;;;;4.37;2.20;;;;;;;;;;5131010;27;20453;-69
2022/09/26 05:03:23;;;;;;;4.63;2.20;;;;;;;;;;5133492;27;20548;-68
2022/09/26 05:05:50;;;;;;;3.67;1.83;;;;;;;;;;5121712;27;20463;-68
2022/09/26 05:08:22;;;;;;;5.07;2.17;;;;;;;;;;5125031;28;20481;-69
2022/09/26 05:10:52;;;;;;;3.93;2.10;;;;;;;;;;5115162;28;20523;-68
2022/09/26 05:13:19;;;;;;;3.97;2.40;;;;;;;;;;5119856;27;20486;-69
2022/09/26 05:15:48;;;;;;;3.40;2.03;;;;;;;;;;5130188;27;20452;-68
2022/09/26 05:18:16;;;;;;;3.63;1.40;;;;;;;;;;5123887;27;20919;-69
2022/09/26 05:20:47;;;;;;;5.90;2.07;;;;;;;;;;5119695;27;20490;-68
2022/09/26 05:26:18;;;;;;;3.83;2.00;;;;;;;;;;5122341;27;20788;-68
2022/09/26 05:26:20;;;;;;;3.67;2.00;;;;;;;;;;5123293;27;20470;-70
2022/09/26 05:28:48;;;;;;;3.00;1.80;;;;;;;;;;5129847;27;20473;-68
2022/09/26 05:31:18;;;;;;;2.97;1.97;;;;;;;;;;5131003;27;20452;-69
2022/09/26 05:33:46;;;;;;;2.57;1.60;;;;;;;;;;5126814;27;20490;-69
2022/09/26 05:36:16;;;;;;;4.27;1.83;;;;;;;;;;5114618;28;20486;-69
2022/09/26 05:38:48;;;;;;;3.83;2.13;;;;;;;;;;5116556;28;20498;-69
2022/09/26 05:41:15;;;;;;;2.80;1.80;;;;;;;;;;5112795;28;20461;-68
2022/09/26 05:43:42;;;;;;;4.97;2.00;;;;;;;;;;5122206;27;20459;-68
2022/09/26 05:46:11;;;;;;;2.93;2.17;;;;;;;;;;5121459;27;20526;-68
2022/09/26 05:48:39;;;;;;;2.87;1.80;;;;;;;;;;5135600;27;20442;-68
2022/09/26 05:51:09;;;;;;;5.00;2.20;;;;;;;;;;5121105;28;20504;-69
2022/09/26 05:53:37;;;;;;;3.73;2.20;;;;;;;;;;5116301;28;20928;-70
2022/09/26 05:56:12;;;;;;;4.03;2.00;;;;;;;;;;5126613;27;20911;-71
2022/09/26 05:58:43;;;;;;;3.90;2.10;;;;;;;;;;5122824;27;20473;-70
2022/09/26 06:01:17;;;;;;;3.07;2.00;;;;;;;;;;5119681;28;20468;-69
2022/09/26 06:03:46;;;;;;;3.13;2.03;;;;;;;;;;5132217;28;20795;-69
2022/09/26 06:06:14;;;;;;;5.10;2.33;;;;;;;;;;5133646;27;20450;-68
2022/09/26 06:08:42;;;;;;;3.83;2.10;;;;;;;;;;5120795;28;20458;-68
2022/09/26 06:11:18;;;;;;;5.13;2.17;;;;;;;;;;5125812;27;20562;-70
2022/09/26 06:13:47;;;;;;;5.23;2.47;;;;;;;;;;5132227;27;20481;-69
2022/09/26 06:16:17;;;;;;;6.20;2.67;;;;;;;;;;5120679;27;20485;-69
2022/09/26 06:18:48;;;;;;;5.90;2.30;;;;;;;;;;5128478;27;20454;-70
2022/09/26 06:21:20;;;;;;;5.10;2.80;;;;;;;;;;5130973;27;20456;-69
2022/09/26 06:23:55;;;;;;;18.20;6.97;;;;;;;;;;5133976;27;20918;-70
2022/09/26 06:26:24;;;;;;;5.00;2.47;;;;;;;;;;5133991;27;20469;-69
2022/09/26 06:28:55;;;;;;;5.60;2.30;;;;;;;;;;5117396;27;20477;-68
2022/09/26 06:31:25;;;;;;;3.50;2.27;;;;;;;;;;5123258;28;20786;-68
2022/09/26 06:33:55;;;;;;;4.57;2.33;;;;;;;;;;5118333;27;20540;-69
2022/09/26 06:36:22;;;;;;;6.60;2.70;;;;;;;;;;5135767;27;20997;-68
2022/09/26 06:38:50;;;;;;;4.10;2.53;;;;;;;;;;5116034;28;20454;-68
2022/09/26 06:41:17;;;;;;;3.73;2.23;;;;;;;;;;5121005;28;20519;-68
2022/09/26 06:43:46;;;;;;;5.37;3.20;;;;;;;;;;5116106;28;20858;-69
2022/09/26 06:46:13;;;;;;;6.27;3.37;;;;;;;;;;5118084;28;20522;-68
2022/09/26 06:48:40;;;;;;;7.33;3.00;;;;;;;;;;5129506;27;20458;-68
2022/09/26 06:51:08;;;;;;;5.20;2.83;;;;;;;;;;5130520;27;20480;-69
2022/09/26 06:53:35;;;;;;;6.27;2.93;;;;;;;;;;5130538;27;20481;-68
2022/09/26 06:56:02;;;;;;;6.93;2.60;;;;;;;;;;5119598;28;20884;-69
2022/09/26 06:58:30;;;;;;;4.23;2.63;;;;;;;;;;5133141;27;20478;-68
2022/09/26 07:01:02;;;;;;;8.70;4.10;;;;;;;;;;5120167;28;20462;-68
2022/09/26 07:03:29;;;;;;;4.57;3.20;;;;;;;;;;5120492;28;20527;-68
2022/09/26 07:05:57;;;;;;;7.57;3.53;;;;;;;;;;5124448;27;20466;-67
2022/09/26 07:08:24;;;;;;;5.67;4.07;;;;;;;;;;5115026;28;20454;-68
2022/09/26 07:10:52;;;;;;;5.97;2.53;;;;;;;;;;5124958;27;20518;-68
2022/09/26 07:13:20;;;;;;;5.30;2.90;;;;;;;;;;5118233;28;20497;-68
2022/09/26 07:15:47;;;;;;;7.53;3.57;;;;;;;;;;5129638;27;20454;-68
2022/09/26 07:18:16;;;;;;;6.53;4.23;;;;;;;;;;5116987;27;20478;-68
2022/09/26 07:20:46;;;;;;;5.40;3.80;;;;;;;;;;5118131;27;20514;-68
2022/09/26 07:23:15;;;;;;;6.90;3.83;;;;;;;;;;5127113;27;20550;-68
2022/09/26 07:25:46;;;;;;;4.70;3.30;;;;;;;;;;5119276;28;20970;-68
2022/09/26 07:28:13;;;;;;;11.13;4.10;;;;;;;;;;5120925;28;20463;-68
2022/09/26 07:30:41;;;;;;;5.90;4.33;;;;;;;;;;5129313;27;20522;-68
2022/09/26 07:33:11;;;;;;;6.03;3.63;;;;;;;;;;5125309;27;20517;-69
2022/09/26 07:35:44;;;;;;;6.20;4.67;;;;;;;;;;5121192;28;20515;-68
2022/09/26 07:38:12;;;;;;;8.93;4.37;;;;;;;;;;5114601;28;20470;-69
2022/09/26 07:43:47;;;;;;;5.37;4.50;;;;;;;;;;5041693;28;20456;-67
2022/09/26 07:51:45;;;;;;;8.20;4.40;;;;;;;;;;5118944;27;20456;-68
2022/09/26 07:54:12;;;;;;;8.40;4.80;;;;;;;;;;5115273;28;20960;-68
2022/09/26 07:56:40;;;;;;;7.30;3.90;;;;;;;;;;5121007;28;20462;-68
2022/09/26 07:59:08;;;;;;;8.13;3.80;;;;;;;;;;5113622;27;20455;-68
2022/09/26 08:01:37;;;;;;;7.93;4.30;;;;;;;;;;5125067;27;20466;-69
2022/09/26 08:04:05;;;;;;;12.43;3.80;;;;;;;;;;5117812;27;20506;-69
2022/09/26 08:06:33;;;;;;;5.97;3.60;;;;;;;;;;5120149;27;20470;-69
2022/09/26 08:09:06;;;;;;;11.63;4.67;;;;;;;;;;5113743;28;20899;-68
2022/09/26 08:11:33;;;;;;;6.20;3.67;;;;;;;;;;5117973;28;20912;-68
2022/09/26 08:14:00;;;;;;;6.07;3.90;;;;;;;;;;5119551;28;21063;-68
2022/09/26 08:16:28;;;;;;;5.07;3.80;;;;;;;;;;5126262;28;20479;-68
2022/09/26 08:18:55;;;;;;;9.00;4.27;;;;;;;;;;5123735;27;20473;-68
2022/09/26 08:21:24;;;;;;;15.43;4.00;;;;;;;;;;5125528;27;20470;-69
2022/09/26 08:23:54;;;;;;;6.87;3.97;;;;;;;;;;5127823;27;20476;-68
2022/09/26 08:26:24;;;;;;;7.80;3.30;;;;;;;;;;5123863;27;20545;-68
2022/09/26 08:28:52;;;;;;;5.77;3.33;;;;;;;;;;5118822;27;20501;-68
2022/09/26 08:31:21;;;;;;;6.83;3.50;;;;;;;;;;5117853;27;20874;-68
2022/09/26 08:33:48;;;;;;;7.50;3.40;;;;;;;;;;5123607;27;20482;-70
2022/09/26 08:36:16;;;;;;;11.57;5.53;;;;;;;;;;5117999;28;20470;-69
2022/09/26 08:38:45;;;;;;;8.73;3.77;;;;;;;;;;5121628;27;20760;-68
2022/09/26 08:41:20;;;;;;;6.93;3.50;;;;;;;;;;5129875;27;20477;-70
2022/09/26 08:43:56;;;;;;;4.67;3.17;;;;;;;;;;5114241;28;21090;-71
2022/09/26 08:46:41;;;;;;;12.80;4.70;;;;;;;;;;5118078;27;20469;-69
2022/09/26 08:49:22;;;;;;;5.27;4.13;;;;;;;;;;5119102;27;20465;-69
2022/09/26 08:51:54;;;;;;;5.50;3.20;;;;;;;;;;5120290;27;21036;-70
2022/09/26 08:54:35;;;;;;;8.20;4.07;;;;;;;;;;5120721;27;20506;-70
2022/09/26 08:57:13;;;;;;;6.03;3.37;;;;;;;;;;5127332;27;20511;-70
2022/09/26 08:59:56;;;;;;;7.60;3.40;;;;;;;;;;5121723;28;20623;-70
2022/09/26 09:02:35;;;;;;;4.93;3.27;;;;;;;;;;5119469;28;20463;-69
2022/09/26 09:05:05;;;;;;;5.17;3.30;;;;;;;;;;5119230;27;20530;-71
2022/09/26 09:07:32;;;;;;;12.30;4.30;;;;;;;;;;5122605;27;20570;-69
2022/09/26 09:10:00;;;;;;;7.27;4.30;;;;;;;;;;5117321;28;20723;-68
2022/09/26 09:12:35;;;;;;;5.23;3.60;;;;;;;;;;5114188;27;20478;-69
2022/09/26 09:15:22;;;;;;;5.30;3.80;;;;;;;;;;5120998;27;20462;-69
2022/09/26 09:17:54;;;;;;;9.37;3.40;;;;;;;;;;5107849;27;20491;-68
2022/09/26 09:20:26;;;;;;;8.23;3.03;;;;;;;;;;5122732;27;20467;-68
2022/09/26 09:23:01;;;;;;;8.87;3.70;;;;;;;;;;5128580;27;20473;-69
2022/09/26 09:25:33;;;;;;;3.83;2.63;;;;;;;;;;5121447;27;20595;-67
2022/09/26 09:28:25;;;;;;;6.87;3.33;;;;;;;;;;5128108;28;20445;-68
2022/09/26 09:31:17;;;;;;;5.43;2.80;;;;;;;;;;5120665;27;20458;-68
2022/09/26 09:33:57;;;;;;;12.07;4.13;;;;;;;;;;5074710;28;20482;-69
2022/09/26 09:36:35;;;;;;;6.20;3.30;;;;;;;;;;5122521;28;20473;-69
2022/09/26 09:39:09;;;;;;;13.87;2.60;;;;;;;;;;5129377;27;21021;-69
2022/09/26 09:41:38;;;;;;;7.63;3.60;;;;;;;;;;5118109;27;21086;-67
2022/09/26 09:44:12;;;;;;;7.37;3.50;;;;;;;;;;5124955;27;20935;-68
2022/09/26 09:46:41;;;;;;;10.77;3.77;;;;;;;;;;5124520;27;20523;-68
2022/09/26 09:49:15;;;;;;;4.17;3.30;;;;;;;;;;5120445;27;20566;-69
2022/09/26 09:51:50;;;;;;;6.00;2.40;;;;;;;;;;5120890;27;20489;-69
2022/09/26 09:54:26;;;;;;;3.83;2.80;;;;;;;;;;5126506;27;21143;-69
2022/09/26 09:57:09;;;;;;;5.37;2.83;;;;;;;;;;5122451;27;20465;-67
2022/09/26 09:59:55;;;;;;;5.07;2.57;;;;;;;;;;5118744;27;20473;-67
2022/09/26 10:02:31;;;;;;;5.90;3.70;;;;;;;;;;5123642;27;20827;-69
2022/09/26 10:05:21;;;;;;;3.30;2.37;;;;;;;;;;5123786;27;20926;-69
2022/09/26 10:08:01;;;;;;;4.53;2.70;;;;;;;;;;5122469;27;20631;-68
2022/09/26 10:10:39;;;;;;;4.43;2.53;;;;;;;;;;5124556;27;20465;-69
2022/09/26 10:13:09;;;;;;;4.73;2.20;;;;;;;;;;5118310;27;20480;-69
2022/09/26 10:15:47;;;;;;;6.40;2.07;;;;;;;;;;5112289;27;21109;-68
2022/09/26 10:18:23;;;;;;;4.10;1.90;;;;;;;;;;5107547;27;20915;-70
2022/09/26 10:21:07;;;;;;;4.60;2.40;;;;;;;;;;5111825;27;22077;-70
2022/09/26 10:23:38;;;;;;;6.40;2.33;;;;;;;;;;5109881;28;20508;-68
2022/09/26 10:26:06;;;;;;;5.63;3.00;;;;;;;;;;5109566;27;20478;-69
2022/09/26 10:29:08;;;;;;;3.93;2.37;;;;;;;;;;5120572;27;21105;-70
2022/09/26 10:31:39;;;;;;;5.03;1.90;;;;;;;;;;5113143;28;20466;-69
2022/09/26 10:34:27;;;;;;;5.50;1.80;;;;;;;;;;5114272;27;20486;-70
2022/09/26 10:36:55;;;;;;;4.90;1.90;;;;;;;;;;5126711;28;20854;-69
2022/09/26 10:42:21;;;;;;;3.80;2.03;;;;;;;;;;5124786;28;20757;-69
2022/09/26 10:45:16;;;;;;;3.63;1.80;;;;;;;;;;5119799;27;21169;-71
2022/09/26 10:48:01;;;;;;;7.10;1.90;;;;;;;;;;5123714;27;20621;-69
2022/09/26 10:50:32;;;;;;;4.97;1.80;;;;;;;;;;5125490;27;20486;-70
2022/09/26 10:53:30;;;;;;;4.47;1.70;;;;;;;;;;5121040;27;20510;-71
2022/09/26 10:56:19;;;;;;;5.40;1.87;;;;;;;;;;5126838;27;20443;-71
2022/09/26 10:58:50;;;;;;;3.00;1.53;;;;;;;;;;5126259;27;20504;-70
2022/09/26 11:01:23;;;;;;;2.50;1.40;;;;;;;;;;5122726;27;20439;-69
2022/09/26 11:03:50;;;;;;;2.90;1.97;;;;;;;;;;5123240;27;20911;-68
2022/09/26 11:06:29;;;;;;;5.63;1.97;;;;;;;;;;5119213;27;20557;-71
2022/09/26 11:09:01;;;;;;;3.07;1.90;;;;;;;;;;5122434;27;20832;-67
2022/09/26 11:11:39;;;;;;;8.20;1.70;;;;;;;;;;5123041;28;20492;-69
2022/09/26 11:14:07;;;;;;;2.23;1.50;;;;;;;;;;5118101;28;21030;-68
2022/09/26 11:16:40;;;;;;;3.53;1.23;;;;;;;;;;5098697;27;20447;-67
2022/09/26 11:19:18;;;;;;;5.57;1.80;;;;;;;;;;5107608;28;20490;-71
2022/09/26 11:21:48;;;;;;;3.00;1.20;;;;;;;;;;5107698;28;20725;-70
2022/09/26 11:24:18;;;;;;;3.07;1.20;;;;;;;;;;5119906;27;21098;-71
2022/09/26 11:26:52;;;;;;;3.87;1.90;;;;;;;;;;5115159;28;20472;-70
2022/09/26 11:29:23;;;;;;;3.67;1.40;;;;;;;;;;5117717;27;20479;-70
2022/09/26 11:31:50;;;;;;;6.20;1.70;;;;;;;;;;5117894;28;20453;-70
2022/09/26 11:34:30;;;;;;;3.77;1.73;;;;;;;;;;5125367;27;20547;-72
2022/09/26 11:37:09;;;;;;;4.23;1.90;;;;;;;;;;5122634;27;20951;-70
2022/09/26 11:39:41;;;;;;;2.50;1.40;;;;;;;;;;5120240;27;20473;-68
2022/09/26 11:42:16;;;;;;;5.57;2.30;;;;;;;;;;5125019;27;20453;-70
2022/09/26 11:45:03;;;;;;;3.63;1.97;;;;;;;;;;5123247;28;20446;-68
2022/09/26 11:47:51;;;;;;;4.40;2.03;;;;;;;;;;5120437;28;20516;-69
2022/09/26 11:50:23;;;;;;;4.10;2.17;;;;;;;;;;5128423;28;21071;-67
2022/09/26 11:52:56;;;;;;;2.23;1.30;;;;;;;;;;5113585;28;20922;-67
2022/09/26 11:55:31;;;;;;;3.57;1.80;;;;;;;;;;5114839;28;20455;-68
2022/09/26 11:58:06;;;;;;;3.00;1.43;;;;;;;;;;5125969;27;20478;-70
2022/09/26 12:00:41;;;;;;;2.10;1.40;;;;;;;;;;5128982;27;20453;-68
2022/09/26 12:03:29;;;;;;;5.00;1.40;;;;;;;;;;5116414;27;20509;-68
2022/09/26 12:06:18;;;;;;;2.43;1.80;;;;;;;;;;5120213;27;20564;-70
2022/09/26 12:09:03;;;;;;;5.10;2.07;;;;;;;;;;5123484;28;20462;-71
2022/09/26 12:11:36;;;;;;;3.60;1.87;;;;;;;;;;5121225;27;20589;-68
2022/09/26 12:14:13;;;;;;;3.00;1.73;;;;;;;;;;5121950;27;20478;-69
2022/09/26 12:16:51;;;;;;;8.50;2.10;;;;;;;;;;5121638;27;20517;-69
2022/09/26 12:19:34;;;;;;;9.60;3.30;;;;;;;;;;5118078;27;20558;-70
2022/09/26 12:25:22;;;;;;;55.30;6.47;;;;;;;;;;5063069;28;20479;-69
2022/09/26 12:28:02;;;;;;;13.53;3.67;;;;;;;;;;5043626;28;20503;-70
2022/09/26 12:30:42;;;;;;;2.93;2.10;;;;;;;;;;5059574;28;20815;-70
2022/09/26 12:33:40;;;;;;;5.47;2.37;;;;;;;;;;5093488;27;20509;-68
2022/09/26 12:36:17;;;;;;;3.80;1.40;;;;;;;;;;5120656;27;20462;-71
2022/09/26 12:38:59;;;;;;;3.10;1.40;;;;;;;;;;5125880;27;20465;-69
2022/09/26 12:41:45;;;;;;;7.83;3.27;;;;;;;;;;5126341;27;20542;-69
2022/09/26 12:44:27;;;;;;;4.13;2.33;;;;;;;;;;5120881;28;20537;-70
2022/09/26 12:47:10;;;;;;;3.83;1.43;;;;;;;;;;5118133;28;20578;-69
2022/09/26 12:53:00;;;;;;;4.17;1.63;;;;;;;;;;5101945;27;20808;-71
2022/09/26 12:55:34;;;;;;;4.63;2.13;;;;;;;;;;5127187;27;20554;-70
2022/09/26 12:58:09;;;;;;;3.27;2.77;;;;;;;;;;5121443;28;20962;-69
2022/09/26 13:00:44;;;;;;;2.97;1.77;;;;;;;;;;5126144;27;20617;-68
2022/09/26 13:03:31;;;;;;;4.97;2.20;;;;;;;;;;5123387;28;20915;-68
2022/09/26 13:06:24;;;;;;;6.30;2.63;;;;;;;;;;5125288;27;20479;-69
2022/09/26 13:09:05;;;;;;;3.20;1.40;;;;;;;;;;5118877;27;20445;-68
2022/09/26 13:11:39;;;;;;;8.50;2.27;;;;;;;;;;5120487;28;20461;-68
2022/09/26 13:14:26;;;;;;;4.70;1.80;;;;;;;;;;5121627;27;20526;-68
2022/09/26 13:17:14;;;;;;;3.90;1.73;;;;;;;;;;5115942;28;20521;-67
2022/09/26 13:19:50;;;;;;;4.53;2.30;;;;;;;;;;5122175;27;20445;-69
2022/09/26 13:22:26;;;;;;;4.00;2.07;;;;;;;;;;5123571;27;20713;-68
2022/09/26 13:24:57;;;;;;;5.80;2.40;;;;;;;;;;5119302;27;20450;-67
2022/09/26 13:27:27;;;;;;;4.07;1.50;;;;;;;;;;5122299;27;20450;-68
2022/09/26 13:29:59;;;;;;;5.47;1.90;;;;;;;;;;5123204;28;20449;-68
2022/09/26 13:32:39;;;;;;;6.80;2.50;;;;;;;;;;5125120;27;20452;-68
2022/09/26 13:35:17;;;;;;;7.87;5.77;;;;;;;;;;5122168;27;20880;-68
2022/09/26 13:37:52;;;;;;;3.00;1.70;;;;;;;;;;5121010;27;20496;-68
2022/09/26 13:40:49;;;;;;;4.50;2.70;;;;;;;;;;5120825;27;20450;-68
2022/09/26 13:43:27;;;;;;;3.70;1.87;;;;;;;;;;5124046;27;20502;-68
2022/09/26 13:45:59;;;;;;;4.37;2.13;;;;;;;;;;5120160;27;20825;-69
2022/09/26 13:48:31;;;;;;;6.20;2.53;;;;;;;;;;5119018;27;20519;-67
2022/09/26 13:51:09;;;;;;;3.97;1.73;;;;;;;;;;5120394;28;20465;-67
2022/09/26 13:53:41;;;;;;;2.83;1.70;;;;;;;;;;5120864;27;20792;-68
2022/09/26 13:56:35;;;;;;;5.20;2.77;;;;;;;;;;5120785;27;20442;-67
2022/09/26 13:59:08;;;;;;;3.60;1.83;;;;;;;;;;5122138;27;20472;-66
2022/09/26 14:01:39;;;;;;;3.90;2.00;;;;;;;;;;5119384;28;20469;-67
2022/09/26 14:04:19;;;;;;;6.33;1.60;;;;;;;;;;5117925;27;20442;-67
2022/09/26 14:10:12;;;;;;;3.37;1.47;;;;;;;;;;5044653;28;20421;-67
2022/09/26 14:12:55;;;;;;;4.17;2.20;;;;;;;;;;5040641;28;20463;-66
2022/09/26 14:15:25;;;;;;;3.20;1.43;;;;;;;;;;5098910;28;20470;-67
2022/09/26 14:18:14;;;;;;;3.77;2.17;;;;;;;;;;5121557;27;20763;-67
2022/09/26 14:21:05;;;;;;;2.80;1.60;;;;;;;;;;5119122;28;20854;-70
2022/09/26 14:23:42;;;;;;;3.13;1.40;;;;;;;;;;5114878;27;20466;-68
2022/09/26 14:26:11;;;;;;;10.47;5.27;;;;;;;;;;5120513;28;21046;-69
2022/09/26 14:28:59;;;;;;;3.90;1.67;;;;;;;;;;5129216;27;20438;-67
2022/09/26 14:31:42;;;;;;;9.33;3.33;;;;;;;;;;5123671;28;20495;-67
2022/09/26 14:34:22;;;;;;;6.53;3.27;;;;;;;;;;5121309;27;20470;-69
2022/09/26 14:36:53;;;;;;;3.73;1.97;;;;;;;;;;5118965;28;21212;-69
2022/09/26 14:39:28;;;;;;;4.27;2.03;;;;;;;;;;5119736;28;20449;-69
2022/09/26 14:41:57;;;;;;;4.30;2.20;;;;;;;;;;5118023;27;20439;-68
2022/09/26 14:44:39;;;;;;;4.67;2.60;;;;;;;;;;5119482;27;20451;-68
2022/09/26 14:47:36;;;;;;;6.20;2.77;;;;;;;;;;5119714;28;20988;-67
2022/09/26 14:50:04;;;;;;;5.80;3.10;;;;;;;;;;5120857;28;20458;-68
2022/09/26 14:52:33;;;;;;;4.37;2.40;;;;;;;;;;5120065;28;20457;-68
2022/09/26 14:55:14;;;;;;;4.43;3.10;;;;;;;;;;5119890;28;20490;-68
2022/09/26 14:57:42;;;;;;;8.30;3.10;;;;;;;;;;5129197;27;20914;-70
2022/09/26 15:00:25;;;;;;;6.70;3.10;;;;;;;;;;5123857;27;20449;-69
2022/09/26 15:03:05;;;;;;;5.50;3.57;;;;;;;;;;5120530;28;20998;-68
2022/09/26 15:05:33;;;;;;;4.27;1.93;;;;;;;;;;5121688;27;20489;-69
2022/09/26 15:08:06;;;;;;;4.00;2.50;;;;;;;;;;5129492;27;20438;-69
2022/09/26 15:10:40;;;;;;;5.70;2.40;;;;;;;;;;5126367;27;20519;-69
2022/09/26 15:13:21;;;;;;;5.70;2.90;;;;;;;;;;5121698;27;20495;-68
2022/09/26 15:16:06;;;;;;;6.10;3.37;;;;;;;;;;5121945;27;20474;-69
2022/09/26 15:18:39;;;;;;;4.33;2.67;;;;;;;;;;5121132;27;20865;-68
2022/09/26 15:21:14;;;;;;;4.90;2.50;;;;;;;;;;5123230;27;20904;-69
2022/09/26 15:23:52;;;;;;;4.10;2.83;;;;;;;;;;5121936;28;20445;-69
2022/09/26 15:26:26;;;;;;;5.70;2.50;;;;;;;;;;5127525;28;20434;-69
2022/09/26 15:28:55;;;;;;;7.13;4.87;;;;;;;;;;5121427;27;20457;-68
2022/09/26 15:31:48;;;;;;;17.40;9.20;;;;;;;;;;5126403;28;20458;-68
2022/09/26 15:34:27;;;;;;;7.20;5.50;;;;;;;;;;5122976;28;20481;-68
2022/09/26 15:37:01;;;;;;;12.63;5.00;;;;;;;;;;5118489;27;20470;-68
2022/09/26 15:39:37;;;;;;;7.17;4.10;;;;;;;;;;5121809;27;20886;-69